sensor_id;sensor_type;location;lat;lon;timestamp;P1;durP1;ratioP1;P2;durP2;ratioP2
43560;SDS011;32305;46.410;17.394;2022-07-22T00:01:18;1.00;;;1.00;;
43560;SDS011;32305;46.410;17.394;2022-07-22T00:03:46;0.80;;;0.80;;
43560;SDS011;32305;46.410;17.394;2022-07-22T00:06:13;1.20;;;1.15;;
43560;SDS011;32305;46.410;17.394;2022-07-22T00:08:40;0.82;;;0.82;;
43560;SDS011;32305;46.410;17.394;2022-07-22T00:11:08;0.80;;;0.80;;
43560;SDS011;32305;46.410;17.394;2022-07-22T00:13:35;0.93;;;0.80;;
43560;SDS011;32305;46.410;17.394;2022-07-22T00:16:02;0.80;;;0.80;;
43560;SDS011;32305;46.410;17.394;2022-07-22T00:18:30;0.98;;;0.95;;
43560;SDS011;32305;46.410;17.394;2022-07-22T00:20:57;1.00;;;1.00;;
43560;SDS011;32305;46.410;17.394;2022-07-22T00:23:24;1.25;;;1.15;;
43560;SDS011;32305;46.410;17.394;2022-07-22T00:25:52;0.77;;;0.77;;
43560;SDS011;32305;46.410;17.394;2022-07-22T00:28:20;0.73;;;0.73;;
43560;SDS011;32305;46.410;17.394;2022-07-22T00:30:47;2.05;;;1.02;;
43560;SDS011;32305;46.410;17.394;2022-07-22T00:33:19;1.10;;;1.10;;
43560;SDS011;32305;46.410;17.394;2022-07-22T00:35:46;1.55;;;1.05;;
43560;SDS011;32305;46.410;17.394;2022-07-22T00:38:13;0.95;;;0.95;;
43560;SDS011;32305;46.410;17.394;2022-07-22T00:40:40;1.00;;;1.00;;
43560;SDS011;32305;46.410;17.394;2022-07-22T00:43:08;0.93;;;0.93;;
43560;SDS011;32305;46.410;17.394;2022-07-22T00:45:35;0.93;;;0.90;;
43560;SDS011;32305;46.410;17.394;2022-07-22T00:48:03;1.38;;;1.10;;
43560;SDS011;32305;46.410;17.394;2022-07-22T00:50:32;0.88;;;0.88;;
43560;SDS011;32305;46.410;17.394;2022-07-22T00:52:59;0.90;;;0.90;;
43560;SDS011;32305;46.410;17.394;2022-07-22T00:55:27;1.10;;;1.10;;
43560;SDS011;32305;46.410;17.394;2022-07-22T00:57:55;0.90;;;0.90;;
43560;SDS011;32305;46.410;17.394;2022-07-22T01:00:22;1.00;;;1.00;;
43560;SDS011;32305;46.410;17.394;2022-07-22T01:02:50;0.90;;;0.90;;
43560;SDS011;32305;46.410;17.394;2022-07-22T01:05:17;1.42;;;0.95;;
43560;SDS011;32305;46.410;17.394;2022-07-22T01:07:45;1.13;;;0.88;;
43560;SDS011;32305;46.410;17.394;2022-07-22T01:10:13;0.93;;;0.93;;
43560;SDS011;32305;46.410;17.394;2022-07-22T01:12:40;0.88;;;0.88;;
43560;SDS011;32305;46.410;17.394;2022-07-22T01:15:07;0.90;;;0.90;;
43560;SDS011;32305;46.410;17.394;2022-07-22T01:17:35;0.80;;;0.80;;
43560;SDS011;32305;46.410;17.394;2022-07-22T01:20:06;0.93;;;0.93;;
43560;SDS011;32305;46.410;17.394;2022-07-22T01:22:34;0.90;;;0.90;;
43560;SDS011;32305;46.410;17.394;2022-07-22T01:25:01;1.02;;;0.98;;
43560;SDS011;32305;46.410;17.394;2022-07-22T01:27:29;2.88;;;1.17;;
43560;SDS011;32305;46.410;17.394;2022-07-22T01:29:56;0.80;;;0.80;;
43560;SDS011;32305;46.410;17.394;2022-07-22T01:32:23;2.97;;;1.40;;
43560;SDS011;32305;46.410;17.394;2022-07-22T01:34:51;0.82;;;0.82;;
43560;SDS011;32305;46.410;17.394;2022-07-22T01:37:18;1.00;;;1.00;;
43560;SDS011;32305;46.410;17.394;2022-07-22T01:39:45;1.20;;;1.15;;
43560;SDS011;32305;46.410;17.394;2022-07-22T01:42:12;0.63;;;0.63;;
43560;SDS011;32305;46.410;17.394;2022-07-22T01:44:39;1.50;;;1.40;;
43560;SDS011;32305;46.410;17.394;2022-07-22T01:47:08;1.65;;;1.00;;
43560;SDS011;32305;46.410;17.394;2022-07-22T01:49:35;1.30;;;1.20;;
43560;SDS011;32305;46.410;17.394;2022-07-22T01:52:03;1.17;;;0.90;;
43560;SDS011;32305;46.410;17.394;2022-07-22T01:54:32;1.20;;;1.08;;
43560;SDS011;32305;46.410;17.394;2022-07-22T01:57:01;0.73;;;0.73;;
43560;SDS011;32305;46.410;17.394;2022-07-22T01:59:29;1.75;;;1.15;;
43560;SDS011;32305;46.410;17.394;2022-07-22T02:01:56;0.70;;;0.70;;
43560;SDS011;32305;46.410;17.394;2022-07-22T02:04:23;0.95;;;0.95;;
43560;SDS011;32305;46.410;17.394;2022-07-22T02:06:52;2.15;;;0.82;;
43560;SDS011;32305;46.410;17.394;2022-07-22T02:09:19;0.80;;;0.80;;
43560;SDS011;32305;46.410;17.394;2022-07-22T02:11:47;1.27;;;0.95;;
43560;SDS011;32305;46.410;17.394;2022-07-22T02:14:14;2.88;;;1.10;;
43560;SDS011;32305;46.410;17.394;2022-07-22T02:16:41;0.75;;;0.75;;
43560;SDS011;32305;46.410;17.394;2022-07-22T02:19:08;0.85;;;0.85;;
43560;SDS011;32305;46.410;17.394;2022-07-22T02:21:36;1.33;;;1.23;;
43560;SDS011;32305;46.410;17.394;2022-07-22T02:24:04;1.02;;;1.00;;
43560;SDS011;32305;46.410;17.394;2022-07-22T02:26:31;1.17;;;0.75;;
43560;SDS011;32305;46.410;17.394;2022-07-22T02:28:58;0.98;;;0.98;;
43560;SDS011;32305;46.410;17.394;2022-07-22T02:31:26;0.90;;;0.90;;
43560;SDS011;32305;46.410;17.394;2022-07-22T02:33:53;1.75;;;1.00;;
43560;SDS011;32305;46.410;17.394;2022-07-22T02:36:22;1.10;;;1.10;;
43560;SDS011;32305;46.410;17.394;2022-07-22T02:38:50;0.73;;;0.73;;
43560;SDS011;32305;46.410;17.394;2022-07-22T02:41:17;0.90;;;0.90;;
43560;SDS011;32305;46.410;17.394;2022-07-22T02:43:45;1.10;;;1.00;;
43560;SDS011;32305;46.410;17.394;2022-07-22T02:46:12;1.13;;;0.88;;
43560;SDS011;32305;46.410;17.394;2022-07-22T02:48:40;0.80;;;0.80;;
43560;SDS011;32305;46.410;17.394;2022-07-22T02:51:07;0.77;;;0.77;;
43560;SDS011;32305;46.410;17.394;2022-07-22T02:53:34;0.93;;;0.93;;
43560;SDS011;32305;46.410;17.394;2022-07-22T02:56:01;0.80;;;0.80;;
43560;SDS011;32305;46.410;17.394;2022-07-22T02:58:29;0.80;;;0.80;;
43560;SDS011;32305;46.410;17.394;2022-07-22T03:00:56;0.90;;;0.90;;
43560;SDS011;32305;46.410;17.394;2022-07-22T03:03:23;1.20;;;1.10;;
43560;SDS011;32305;46.410;17.394;2022-07-22T03:05:50;1.13;;;0.98;;
43560;SDS011;32305;46.410;17.394;2022-07-22T03:08:18;1.75;;;0.80;;
43560;SDS011;32305;46.410;17.394;2022-07-22T03:10:45;1.10;;;1.10;;
43560;SDS011;32305;46.410;17.394;2022-07-22T03:13:12;1.05;;;0.95;;
43560;SDS011;32305;46.410;17.394;2022-07-22T03:15:39;0.90;;;0.90;;
43560;SDS011;32305;46.410;17.394;2022-07-22T03:18:06;1.08;;;0.90;;
43560;SDS011;32305;46.410;17.394;2022-07-22T03:20:34;1.25;;;1.10;;
43560;SDS011;32305;46.410;17.394;2022-07-22T03:23:01;0.70;;;0.70;;
43560;SDS011;32305;46.410;17.394;2022-07-22T03:25:28;1.25;;;0.93;;
43560;SDS011;32305;46.410;17.394;2022-07-22T03:27:57;0.60;;;0.60;;
43560;SDS011;32305;46.410;17.394;2022-07-22T03:30:25;1.15;;;0.95;;
43560;SDS011;32305;46.410;17.394;2022-07-22T03:32:52;1.05;;;1.05;;
43560;SDS011;32305;46.410;17.394;2022-07-22T03:35:19;1.42;;;1.10;;
43560;SDS011;32305;46.410;17.394;2022-07-22T03:37:46;0.95;;;0.80;;
43560;SDS011;32305;46.410;17.394;2022-07-22T03:40:13;1.27;;;0.80;;
43560;SDS011;32305;46.410;17.394;2022-07-22T03:42:41;0.70;;;0.70;;
43560;SDS011;32305;46.410;17.394;2022-07-22T03:45:12;1.27;;;1.17;;
43560;SDS011;32305;46.410;17.394;2022-07-22T03:47:39;1.38;;;1.27;;
43560;SDS011;32305;46.410;17.394;2022-07-22T03:50:07;1.02;;;1.02;;
43560;SDS011;32305;46.410;17.394;2022-07-22T03:52:34;0.68;;;0.68;;
43560;SDS011;32305;46.410;17.394;2022-07-22T03:55:01;0.90;;;0.90;;
43560;SDS011;32305;46.410;17.394;2022-07-22T03:57:30;1.02;;;1.02;;
43560;SDS011;32305;46.410;17.394;2022-07-22T03:59:57;0.70;;;0.70;;
43560;SDS011;32305;46.410;17.394;2022-07-22T04:02:25;0.70;;;0.70;;
43560;SDS011;32305;46.410;17.394;2022-07-22T04:04:52;1.13;;;1.02;;
43560;SDS011;32305;46.410;17.394;2022-07-22T04:07:19;0.88;;;0.88;;
43560;SDS011;32305;46.410;17.394;2022-07-22T04:09:46;0.95;;;0.95;;
43560;SDS011;32305;46.410;17.394;2022-07-22T04:12:13;1.27;;;0.93;;
43560;SDS011;32305;46.410;17.394;2022-07-22T04:14:40;1.20;;;1.10;;
43560;SDS011;32305;46.410;17.394;2022-07-22T04:17:08;1.10;;;1.10;;
43560;SDS011;32305;46.410;17.394;2022-07-22T04:19:41;1.00;;;1.00;;
43560;SDS011;32305;46.410;17.394;2022-07-22T04:22:08;0.88;;;0.88;;
43560;SDS011;32305;46.410;17.394;2022-07-22T04:24:35;1.40;;;1.30;;
43560;SDS011;32305;46.410;17.394;2022-07-22T04:27:02;1.23;;;1.15;;
43560;SDS011;32305;46.410;17.394;2022-07-22T04:29:30;0.80;;;0.80;;
43560;SDS011;32305;46.410;17.394;2022-07-22T04:31:57;1.00;;;1.00;;
43560;SDS011;32305;46.410;17.394;2022-07-22T04:34:28;1.00;;;1.00;;
43560;SDS011;32305;46.410;17.394;2022-07-22T04:36:56;0.88;;;0.88;;
43560;SDS011;32305;46.410;17.394;2022-07-22T04:39:23;1.08;;;1.08;;
43560;SDS011;32305;46.410;17.394;2022-07-22T04:41:50;1.15;;;0.98;;
43560;SDS011;32305;46.410;17.394;2022-07-22T04:44:17;0.90;;;0.90;;
43560;SDS011;32305;46.410;17.394;2022-07-22T04:46:44;0.98;;;0.77;;
43560;SDS011;32305;46.410;17.394;2022-07-22T04:49:12;0.77;;;0.77;;
43560;SDS011;32305;46.410;17.394;2022-07-22T04:51:40;0.93;;;0.93;;
43560;SDS011;32305;46.410;17.394;2022-07-22T04:54:07;1.95;;;1.10;;
43560;SDS011;32305;46.410;17.394;2022-07-22T04:56:34;0.85;;;0.85;;
43560;SDS011;32305;46.410;17.394;2022-07-22T04:59:02;1.00;;;1.00;;
43560;SDS011;32305;46.410;17.394;2022-07-22T05:01:30;1.23;;;0.77;;
43560;SDS011;32305;46.410;17.394;2022-07-22T05:03:57;0.90;;;0.90;;
43560;SDS011;32305;46.410;17.394;2022-07-22T05:06:24;0.85;;;0.85;;
43560;SDS011;32305;46.410;17.394;2022-07-22T05:08:51;0.95;;;0.95;;
43560;SDS011;32305;46.410;17.394;2022-07-22T05:11:19;1.17;;;1.17;;
43560;SDS011;32305;46.410;17.394;2022-07-22T05:13:46;1.48;;;1.38;;
43560;SDS011;32305;46.410;17.394;2022-07-22T05:16:14;1.13;;;1.13;;
43560;SDS011;32305;46.410;17.394;2022-07-22T05:18:41;1.50;;;1.40;;
43560;SDS011;32305;46.410;17.394;2022-07-22T05:21:09;1.40;;;1.27;;
43560;SDS011;32305;46.410;17.394;2022-07-22T05:23:36;1.42;;;1.33;;
43560;SDS011;32305;46.410;17.394;2022-07-22T05:26:04;1.55;;;1.33;;
43560;SDS011;32305;46.410;17.394;2022-07-22T05:28:31;3.90;;;1.85;;
43560;SDS011;32305;46.410;17.394;2022-07-22T05:30:59;1.75;;;1.65;;
43560;SDS011;32305;46.410;17.394;2022-07-22T05:33:26;1.92;;;1.73;;
43560;SDS011;32305;46.410;17.394;2022-07-22T05:35:54;2.20;;;2.00;;
43560;SDS011;32305;46.410;17.394;2022-07-22T05:38:21;2.88;;;2.05;;
43560;SDS011;32305;46.410;17.394;2022-07-22T05:40:49;4.18;;;2.45;;
43560;SDS011;32305;46.410;17.394;2022-07-22T05:43:16;3.30;;;2.63;;
43560;SDS011;32305;46.410;17.394;2022-07-22T05:45:43;3.20;;;2.85;;
43560;SDS011;32305;46.410;17.394;2022-07-22T05:48:11;3.67;;;3.15;;
43560;SDS011;32305;46.410;17.394;2022-07-22T05:50:38;3.80;;;3.40;;
43560;SDS011;32305;46.410;17.394;2022-07-22T05:53:05;5.28;;;3.95;;
43560;SDS011;32305;46.410;17.394;2022-07-22T05:55:33;7.43;;;3.78;;
43560;SDS011;32305;46.410;17.394;2022-07-22T05:58:00;6.95;;;4.20;;
43560;SDS011;32305;46.410;17.394;2022-07-22T06:00:28;5.95;;;4.38;;
43560;SDS011;32305;46.410;17.394;2022-07-22T06:02:57;5.53;;;4.45;;
43560;SDS011;32305;46.410;17.394;2022-07-22T06:05:24;5.20;;;4.47;;
43560;SDS011;32305;46.410;17.394;2022-07-22T06:08:07;5.65;;;4.18;;
43560;SDS011;32305;46.410;17.394;2022-07-22T06:10:34;6.88;;;4.78;;
43560;SDS011;32305;46.410;17.394;2022-07-22T06:13:01;7.13;;;4.15;;
43560;SDS011;32305;46.410;17.394;2022-07-22T06:15:29;6.43;;;5.63;;
43560;SDS011;32305;46.410;17.394;2022-07-22T06:17:56;7.70;;;4.88;;
43560;SDS011;32305;46.410;17.394;2022-07-22T06:20:23;7.72;;;4.80;;
43560;SDS011;32305;46.410;17.394;2022-07-22T06:22:51;7.53;;;4.93;;
43560;SDS011;32305;46.410;17.394;2022-07-22T06:25:18;7.95;;;5.38;;
43560;SDS011;32305;46.410;17.394;2022-07-22T06:28:05;9.38;;;5.60;;
43560;SDS011;32305;46.410;17.394;2022-07-22T06:30:32;10.98;;;5.40;;
43560;SDS011;32305;46.410;17.394;2022-07-22T06:33:00;9.05;;;5.13;;
43560;SDS011;32305;46.410;17.394;2022-07-22T06:35:28;6.40;;;5.28;;
43560;SDS011;32305;46.410;17.394;2022-07-22T06:37:55;5.35;;;4.70;;
43560;SDS011;32305;46.410;17.394;2022-07-22T06:40:32;8.40;;;4.45;;
43560;SDS011;32305;46.410;17.394;2022-07-22T06:43:01;5.63;;;5.00;;
43560;SDS011;32305;46.410;17.394;2022-07-22T06:45:30;9.32;;;5.55;;
43560;SDS011;32305;46.410;17.394;2022-07-22T06:47:57;5.05;;;4.55;;
43560;SDS011;32305;46.410;17.394;2022-07-22T06:50:25;7.30;;;4.43;;
43560;SDS011;32305;46.410;17.394;2022-07-22T06:52:55;7.23;;;5.73;;
43560;SDS011;32305;46.410;17.394;2022-07-22T06:55:22;7.75;;;4.97;;
43560;SDS011;32305;46.410;17.394;2022-07-22T06:57:50;7.40;;;5.53;;
43560;SDS011;32305;46.410;17.394;2022-07-22T07:00:17;7.13;;;4.93;;
43560;SDS011;32305;46.410;17.394;2022-07-22T07:02:45;5.07;;;4.40;;
43560;SDS011;32305;46.410;17.394;2022-07-22T07:05:14;9.05;;;4.78;;
43560;SDS011;32305;46.410;17.394;2022-07-22T07:07:46;5.95;;;4.18;;
43560;SDS011;32305;46.410;17.394;2022-07-22T07:10:13;7.45;;;4.65;;
43560;SDS011;32305;46.410;17.394;2022-07-22T07:12:42;14.88;;;5.72;;
43560;SDS011;32305;46.410;17.394;2022-07-22T07:15:10;6.32;;;4.60;;
43560;SDS011;32305;46.410;17.394;2022-07-22T07:17:54;5.35;;;4.68;;
43560;SDS011;32305;46.410;17.394;2022-07-22T07:20:23;8.10;;;4.60;;
43560;SDS011;32305;46.410;17.394;2022-07-22T07:22:52;5.35;;;4.43;;
43560;SDS011;32305;46.410;17.394;2022-07-22T07:25:20;8.27;;;4.78;;
43560;SDS011;32305;46.410;17.394;2022-07-22T07:27:51;9.20;;;4.82;;
43560;SDS011;32305;46.410;17.394;2022-07-22T07:30:20;6.85;;;4.80;;
43560;SDS011;32305;46.410;17.394;2022-07-22T07:32:47;5.05;;;4.32;;
43560;SDS011;32305;46.410;17.394;2022-07-22T07:35:14;4.50;;;4.10;;
43560;SDS011;32305;46.410;17.394;2022-07-22T07:37:42;5.00;;;4.50;;
43560;SDS011;32305;46.410;17.394;2022-07-22T07:40:09;7.80;;;4.43;;
43560;SDS011;32305;46.410;17.394;2022-07-22T07:42:37;7.25;;;4.93;;
43560;SDS011;32305;46.410;17.394;2022-07-22T07:45:12;7.78;;;4.32;;
43560;SDS011;32305;46.410;17.394;2022-07-22T07:47:41;4.97;;;4.28;;
43560;SDS011;32305;46.410;17.394;2022-07-22T07:50:08;5.00;;;4.30;;
43560;SDS011;32305;46.410;17.394;2022-07-22T07:52:40;5.03;;;3.83;;
43560;SDS011;32305;46.410;17.394;2022-07-22T07:55:17;4.85;;;3.78;;
43560;SDS011;32305;46.410;17.394;2022-07-22T07:57:46;3.90;;;3.50;;
43560;SDS011;32305;46.410;17.394;2022-07-22T08:00:22;7.18;;;4.57;;
43560;SDS011;32305;46.410;17.394;2022-07-22T08:02:50;6.38;;;4.32;;
43560;SDS011;32305;46.410;17.394;2022-07-22T08:05:19;7.97;;;4.53;;
43560;SDS011;32305;46.410;17.394;2022-07-22T08:07:52;7.15;;;4.90;;
43560;SDS011;32305;46.410;17.394;2022-07-22T08:10:20;5.30;;;3.35;;
43560;SDS011;32305;46.410;17.394;2022-07-22T08:13:07;9.52;;;4.93;;
43560;SDS011;32305;46.410;17.394;2022-07-22T08:15:35;5.53;;;4.03;;
43560;SDS011;32305;46.410;17.394;2022-07-22T08:18:03;5.18;;;4.03;;
43560;SDS011;32305;46.410;17.394;2022-07-22T08:20:31;4.70;;;3.50;;
43560;SDS011;32305;46.410;17.394;2022-07-22T08:22:58;6.18;;;4.72;;
43560;SDS011;32305;46.410;17.394;2022-07-22T08:25:25;11.18;;;4.22;;
43560;SDS011;32305;46.410;17.394;2022-07-22T08:27:54;6.13;;;3.70;;
43560;SDS011;32305;46.410;17.394;2022-07-22T08:30:21;6.72;;;4.50;;
43560;SDS011;32305;46.410;17.394;2022-07-22T08:32:53;6.60;;;4.07;;
43560;SDS011;32305;46.410;17.394;2022-07-22T08:35:21;5.57;;;3.80;;
43560;SDS011;32305;46.410;17.394;2022-07-22T08:37:48;5.20;;;4.45;;
43560;SDS011;32305;46.410;17.394;2022-07-22T08:40:16;4.60;;;3.95;;
43560;SDS011;32305;46.410;17.394;2022-07-22T08:42:45;7.63;;;3.95;;
43560;SDS011;32305;46.410;17.394;2022-07-22T08:45:14;6.47;;;4.22;;
43560;SDS011;32305;46.410;17.394;2022-07-22T08:47:48;5.70;;;3.88;;
43560;SDS011;32305;46.410;17.394;2022-07-22T08:50:18;4.57;;;4.00;;
43560;SDS011;32305;46.410;17.394;2022-07-22T08:52:47;5.00;;;3.80;;
43560;SDS011;32305;46.410;17.394;2022-07-22T08:55:14;7.55;;;3.63;;
43560;SDS011;32305;46.410;17.394;2022-07-22T08:57:45;5.70;;;4.18;;
43560;SDS011;32305;46.410;17.394;2022-07-22T09:00:20;9.85;;;3.70;;
43560;SDS011;32305;46.410;17.394;2022-07-22T09:02:48;5.00;;;3.38;;
43560;SDS011;32305;46.410;17.394;2022-07-22T09:05:16;5.22;;;3.60;;
43560;SDS011;32305;46.410;17.394;2022-07-22T09:08:05;5.80;;;3.83;;
43560;SDS011;32305;46.410;17.394;2022-07-22T09:10:32;4.78;;;3.92;;
43560;SDS011;32305;46.410;17.394;2022-07-22T09:13:03;7.15;;;3.28;;
43560;SDS011;32305;46.410;17.394;2022-07-22T09:15:32;6.63;;;3.45;;
43560;SDS011;32305;46.410;17.394;2022-07-22T09:18:03;5.35;;;3.17;;
43560;SDS011;32305;46.410;17.394;2022-07-22T09:20:33;4.72;;;3.65;;
43560;SDS011;32305;46.410;17.394;2022-07-22T09:25:37;4.10;;;3.40;;
43560;SDS011;32305;46.410;17.394;2022-07-22T09:28:09;6.13;;;3.60;;
43560;SDS011;32305;46.410;17.394;2022-07-22T09:30:42;4.22;;;3.30;;
43560;SDS011;32305;46.410;17.394;2022-07-22T09:33:19;3.25;;;2.95;;
43560;SDS011;32305;46.410;17.394;2022-07-22T09:35:47;7.15;;;3.00;;
43560;SDS011;32305;46.410;17.394;2022-07-22T09:38:17;4.75;;;3.47;;
43560;SDS011;32305;46.410;17.394;2022-07-22T09:40:52;3.53;;;3.20;;
43560;SDS011;32305;46.410;17.394;2022-07-22T09:43:20;5.68;;;3.25;;
43560;SDS011;32305;46.410;17.394;2022-07-22T09:45:52;8.13;;;3.03;;
43560;SDS011;32305;46.410;17.394;2022-07-22T09:48:24;4.88;;;2.83;;
43560;SDS011;32305;46.410;17.394;2022-07-22T09:50:53;3.25;;;2.95;;
43560;SDS011;32305;46.410;17.394;2022-07-22T09:53:23;2.80;;;2.58;;
43560;SDS011;32305;46.410;17.394;2022-07-22T09:55:53;5.05;;;2.92;;
43560;SDS011;32305;46.410;17.394;2022-07-22T09:58:21;3.50;;;3.00;;
43560;SDS011;32305;46.410;17.394;2022-07-22T10:00:48;4.53;;;3.00;;
43560;SDS011;32305;46.410;17.394;2022-07-22T10:03:28;7.40;;;3.60;;
43560;SDS011;32305;46.410;17.394;2022-07-22T10:05:57;3.42;;;2.75;;
43560;SDS011;32305;46.410;17.394;2022-07-22T10:08:26;5.63;;;2.90;;
43560;SDS011;32305;46.410;17.394;2022-07-22T10:10:54;6.88;;;2.70;;
43560;SDS011;32305;46.410;17.394;2022-07-22T10:13:25;2.80;;;2.47;;
43560;SDS011;32305;46.410;17.394;2022-07-22T10:15:54;3.75;;;3.10;;
43560;SDS011;32305;46.410;17.394;2022-07-22T10:18:23;3.55;;;2.65;;
43560;SDS011;32305;46.410;17.394;2022-07-22T10:21:05;2.78;;;2.58;;
43560;SDS011;32305;46.410;17.394;2022-07-22T10:23:34;3.75;;;2.63;;
43560;SDS011;32305;46.410;17.394;2022-07-22T10:26:02;3.65;;;2.72;;
43560;SDS011;32305;46.410;17.394;2022-07-22T10:28:35;3.22;;;2.42;;
43560;SDS011;32305;46.410;17.394;2022-07-22T10:31:20;4.15;;;2.33;;
43560;SDS011;32305;46.410;17.394;2022-07-22T10:33:51;8.23;;;2.60;;
43560;SDS011;32305;46.410;17.394;2022-07-22T10:36:32;3.28;;;2.63;;
43560;SDS011;32305;46.410;17.394;2022-07-22T10:39:04;6.38;;;3.13;;
43560;SDS011;32305;46.410;17.394;2022-07-22T10:41:37;4.80;;;2.92;;
43560;SDS011;32305;46.410;17.394;2022-07-22T10:44:07;4.13;;;2.45;;
43560;SDS011;32305;46.410;17.394;2022-07-22T10:46:49;4.53;;;2.47;;
43560;SDS011;32305;46.410;17.394;2022-07-22T10:49:19;5.10;;;2.60;;
43560;SDS011;32305;46.410;17.394;2022-07-22T10:52:08;3.95;;;2.70;;
43560;SDS011;32305;46.410;17.394;2022-07-22T10:57:42;3.65;;;2.97;;
43560;SDS011;32305;46.410;17.394;2022-07-22T11:00:10;2.55;;;2.35;;
43560;SDS011;32305;46.410;17.394;2022-07-22T11:02:37;3.15;;;2.80;;
43560;SDS011;32305;46.410;17.394;2022-07-22T11:05:05;4.28;;;3.25;;
43560;SDS011;32305;46.410;17.394;2022-07-22T11:07:42;2.83;;;2.45;;
43560;SDS011;32305;46.410;17.394;2022-07-22T11:10:14;2.85;;;2.42;;
43560;SDS011;32305;46.410;17.394;2022-07-22T11:12:47;3.72;;;2.40;;
43560;SDS011;32305;46.410;17.394;2022-07-22T11:15:16;2.28;;;2.05;;
43560;SDS011;32305;46.410;17.394;2022-07-22T11:17:44;2.80;;;2.38;;
43560;SDS011;32305;46.410;17.394;2022-07-22T11:20:16;3.83;;;2.90;;
43560;SDS011;32305;46.410;17.394;2022-07-22T11:22:43;3.45;;;2.60;;
43560;SDS011;32305;46.410;17.394;2022-07-22T11:25:14;4.53;;;2.65;;
43560;SDS011;32305;46.410;17.394;2022-07-22T11:27:51;4.05;;;2.40;;
43560;SDS011;32305;46.410;17.394;2022-07-22T11:30:20;5.75;;;2.85;;
43560;SDS011;32305;46.410;17.394;2022-07-22T11:32:47;8.88;;;2.55;;
43560;SDS011;32305;46.410;17.394;2022-07-22T11:35:15;5.18;;;3.10;;
43560;SDS011;32305;46.410;17.394;2022-07-22T11:37:42;2.95;;;2.30;;
43560;SDS011;32305;46.410;17.394;2022-07-22T11:40:21;2.45;;;2.25;;
43560;SDS011;32305;46.410;17.394;2022-07-22T11:43:00;3.75;;;2.50;;
43560;SDS011;32305;46.410;17.394;2022-07-22T11:45:28;4.63;;;3.20;;
43560;SDS011;32305;46.410;17.394;2022-07-22T11:47:55;4.82;;;2.55;;
43560;SDS011;32305;46.410;17.394;2022-07-22T11:50:32;5.38;;;2.95;;
43560;SDS011;32305;46.410;17.394;2022-07-22T11:53:01;3.30;;;2.50;;
43560;SDS011;32305;46.410;17.394;2022-07-22T11:55:29;3.30;;;3.00;;
43560;SDS011;32305;46.410;17.394;2022-07-22T11:57:56;4.25;;;2.50;;
43560;SDS011;32305;46.410;17.394;2022-07-22T12:00:24;3.45;;;2.78;;
43560;SDS011;32305;46.410;17.394;2022-07-22T12:02:51;3.83;;;3.08;;
43560;SDS011;32305;46.410;17.394;2022-07-22T12:05:18;2.80;;;2.60;;
43560;SDS011;32305;46.410;17.394;2022-07-22T12:08:01;5.18;;;3.03;;
43560;SDS011;32305;46.410;17.394;2022-07-22T12:10:29;3.30;;;2.70;;
43560;SDS011;32305;46.410;17.394;2022-07-22T12:12:56;4.63;;;2.53;;
43560;SDS011;32305;46.410;17.394;2022-07-22T12:15:24;3.78;;;2.50;;
43560;SDS011;32305;46.410;17.394;2022-07-22T12:18:18;2.70;;;2.47;;
43560;SDS011;32305;46.410;17.394;2022-07-22T12:20:47;3.90;;;2.30;;
43560;SDS011;32305;46.410;17.394;2022-07-22T12:23:20;3.33;;;2.50;;
43560;SDS011;32305;46.410;17.394;2022-07-22T12:25:49;2.42;;;2.22;;
43560;SDS011;32305;46.410;17.394;2022-07-22T12:28:21;4.22;;;2.75;;
43560;SDS011;32305;46.410;17.394;2022-07-22T12:30:49;2.50;;;2.30;;
43560;SDS011;32305;46.410;17.394;2022-07-22T12:33:18;6.20;;;2.45;;
43560;SDS011;32305;46.410;17.394;2022-07-22T12:38:34;3.58;;;2.40;;
43560;SDS011;32305;46.410;17.394;2022-07-22T12:43:55;7.82;;;2.70;;
43560;SDS011;32305;46.410;17.394;2022-07-22T12:46:24;3.83;;;2.40;;
43560;SDS011;32305;46.410;17.394;2022-07-22T12:48:52;5.50;;;2.42;;
43560;SDS011;32305;46.410;17.394;2022-07-22T12:51:20;4.45;;;3.13;;
43560;SDS011;32305;46.410;17.394;2022-07-22T12:53:47;6.38;;;2.58;;
43560;SDS011;32305;46.410;17.394;2022-07-22T12:56:14;3.65;;;2.45;;
43560;SDS011;32305;46.410;17.394;2022-07-22T12:58:42;4.50;;;3.15;;
43560;SDS011;32305;46.410;17.394;2022-07-22T13:01:09;4.28;;;2.72;;
43560;SDS011;32305;46.410;17.394;2022-07-22T13:03:36;2.92;;;2.60;;
43560;SDS011;32305;46.410;17.394;2022-07-22T13:06:04;2.53;;;2.33;;
43560;SDS011;32305;46.410;17.394;2022-07-22T13:11:11;3.00;;;2.70;;
43560;SDS011;32305;46.410;17.394;2022-07-22T13:13:40;3.67;;;2.80;;
43560;SDS011;32305;46.410;17.394;2022-07-22T13:16:09;6.13;;;2.60;;
43560;SDS011;32305;46.410;17.394;2022-07-22T13:18:38;2.88;;;2.53;;
43560;SDS011;32305;46.410;17.394;2022-07-22T13:21:05;2.97;;;2.67;;
43560;SDS011;32305;46.410;17.394;2022-07-22T13:23:32;3.63;;;2.60;;
43560;SDS011;32305;46.410;17.394;2022-07-22T13:25:59;2.63;;;2.42;;
43560;SDS011;32305;46.410;17.394;2022-07-22T13:28:26;2.65;;;2.40;;
43560;SDS011;32305;46.410;17.394;2022-07-22T13:30:54;3.00;;;2.80;;
43560;SDS011;32305;46.410;17.394;2022-07-22T13:33:21;3.08;;;2.70;;
43560;SDS011;32305;46.410;17.394;2022-07-22T13:35:48;3.25;;;2.65;;
43560;SDS011;32305;46.410;17.394;2022-07-22T13:38:15;3.38;;;2.72;;
43560;SDS011;32305;46.410;17.394;2022-07-22T13:40:44;3.42;;;2.90;;
43560;SDS011;32305;46.410;17.394;2022-07-22T13:43:19;3.05;;;2.75;;
43560;SDS011;32305;46.410;17.394;2022-07-22T13:45:47;3.08;;;2.78;;
43560;SDS011;32305;46.410;17.394;2022-07-22T13:48:15;5.32;;;3.20;;
43560;SDS011;32305;46.410;17.394;2022-07-22T13:50:47;5.00;;;3.03;;
43560;SDS011;32305;46.410;17.394;2022-07-22T13:53:14;2.78;;;2.40;;
43560;SDS011;32305;46.410;17.394;2022-07-22T13:55:41;6.00;;;2.95;;
43560;SDS011;32305;46.410;17.394;2022-07-22T13:58:09;7.35;;;2.85;;
43560;SDS011;32305;46.410;17.394;2022-07-22T14:00:36;9.30;;;3.33;;
43560;SDS011;32305;46.410;17.394;2022-07-22T14:03:04;6.03;;;3.05;;
43560;SDS011;32305;46.410;17.394;2022-07-22T14:05:32;3.28;;;2.97;;
43560;SDS011;32305;46.410;17.394;2022-07-22T14:08:00;5.40;;;3.08;;
43560;SDS011;32305;46.410;17.394;2022-07-22T14:10:27;3.65;;;2.58;;
43560;SDS011;32305;46.410;17.394;2022-07-22T14:12:54;3.70;;;3.00;;
43560;SDS011;32305;46.410;17.394;2022-07-22T14:15:21;2.83;;;2.55;;
43560;SDS011;32305;46.410;17.394;2022-07-22T14:17:48;4.32;;;3.50;;
43560;SDS011;32305;46.410;17.394;2022-07-22T14:20:16;3.63;;;2.70;;
43560;SDS011;32305;46.410;17.394;2022-07-22T14:22:43;3.30;;;2.67;;
43560;SDS011;32305;46.410;17.394;2022-07-22T14:25:10;4.40;;;3.08;;
43560;SDS011;32305;46.410;17.394;2022-07-22T14:27:37;7.25;;;2.85;;
43560;SDS011;32305;46.410;17.394;2022-07-22T14:30:04;4.18;;;3.72;;
43560;SDS011;32305;46.410;17.394;2022-07-22T14:32:32;3.42;;;3.13;;
43560;SDS011;32305;46.410;17.394;2022-07-22T14:34:59;2.88;;;2.58;;
43560;SDS011;32305;46.410;17.394;2022-07-22T14:37:28;2.80;;;2.60;;
43560;SDS011;32305;46.410;17.394;2022-07-22T14:39:55;3.22;;;2.92;;
43560;SDS011;32305;46.410;17.394;2022-07-22T14:42:22;3.25;;;2.95;;
43560;SDS011;32305;46.410;17.394;2022-07-22T14:44:50;2.67;;;2.47;;
43560;SDS011;32305;46.410;17.394;2022-07-22T14:47:17;3.42;;;3.13;;
43560;SDS011;32305;46.410;17.394;2022-07-22T14:49:44;2.95;;;2.67;;
43560;SDS011;32305;46.410;17.394;2022-07-22T14:52:11;5.28;;;2.90;;
43560;SDS011;32305;46.410;17.394;2022-07-22T14:54:38;3.42;;;2.88;;
43560;SDS011;32305;46.410;17.394;2022-07-22T14:57:05;6.45;;;2.80;;